Time;durP1;ratioP1;P1;durP2;ratioP2;P2;SDS_P1;SDS_P2;PMS_P1;PMS_P2;Temp;Humidity;BMP_temperature;BMP_pressure;BME280_temperature;BME280_humidity;BME280_pressure;Samples;Min_cycle;Max_cycle;Signal;HPM_P1;HPM_P2
2022/01/28 00:05:22;;;;;;;11.38;6.15;;;;;;;;;;5022135;28;20096;-70
2022/01/28 00:07:50;;;;;;;11.77;5.80;;;;;;;;;;5020359;28;20665;-73
2022/01/28 00:10:19;;;;;;;10.40;5.82;;;;;;;;;;5018004;28;20049;-65
2022/01/28 00:13:32;;;;;;;10.00;5.60;;;;;;;;;;5017247;28;20052;-72
2022/01/28 00:15:41;;;;;;;9.88;5.72;;;;;;;;;;5006646;28;20139;-73
2022/01/28 00:18:35;;;;;;;11.85;5.28;;;;;;;;;;5001318;28;20061;-70
2022/01/28 00:36:41;;;;;;;6.93;4.68;;;;;;;;;;5003068;28;20049;-66
2022/01/28 00:39:46;;;;;;;7.45;4.18;;;;;;;;;;5017240;28;20049;-73
2022/01/28 00:42:13;;;;;;;8.32;3.67;;;;;;;;;;5014926;28;20083;-64
2022/01/28 00:44:39;;;;;;;10.95;4.25;;;;;;;;;;5020991;28;20787;-65
2022/01/28 00:47:06;;;;;;;8.23;3.70;;;;;;;;;;4999322;28;20058;-64
2022/01/28 00:49:32;;;;;;;7.60;3.80;;;;;;;;;;5015045;28;20055;-70
2022/01/28 00:51:58;;;;;;;8.15;3.65;;;;;;;;;;5001163;28;20049;-69
2022/01/28 00:54:25;;;;;;;5.93;3.40;;;;;;;;;;5015588;28;20065;-70
2022/01/28 00:56:51;;;;;;;9.00;4.30;;;;;;;;;;5018796;28;20482;-70
2022/01/28 00:59:18;;;;;;;5.32;3.40;;;;;;;;;;5014045;28;20384;-68
2022/01/28 01:01:44;;;;;;;5.80;3.70;;;;;;;;;;5020030;28;20867;-72
2022/01/28 01:04:11;;;;;;;5.95;3.40;;;;;;;;;;5001316;28;20506;-65
2022/01/28 01:06:37;;;;;;;4.75;3.00;;;;;;;;;;5019840;28;20072;-66
2022/01/28 01:09:04;;;;;;;6.93;3.15;;;;;;;;;;4997683;28;20057;-68
2022/01/28 01:11:30;;;;;;;6.30;3.30;;;;;;;;;;5001934;28;20058;-72
2022/01/28 01:13:57;;;;;;;8.80;3.50;;;;;;;;;;5000945;28;20147;-71
2022/01/28 01:16:32;;;;;;;8.32;3.55;;;;;;;;;;5017850;28;20169;-72
2022/01/28 01:19:23;;;;;;;7.28;3.28;;;;;;;;;;4991296;28;20137;-72
2022/01/28 01:21:44;;;;;;;5.03;2.92;;;;;;;;;;5002259;28;20144;-66
2022/01/28 01:24:20;;;;;;;5.30;2.90;;;;;;;;;;5018099;28;20102;-72
2022/01/28 01:26:46;;;;;;;6.07;3.20;;;;;;;;;;5003133;28;20060;-68
2022/01/28 01:29:14;;;;;;;6.82;3.10;;;;;;;;;;5013955;28;20049;-65
2022/01/28 01:31:42;;;;;;;6.18;3.22;;;;;;;;;;5016712;28;20522;-66
2022/01/28 01:36:36;;;;;;;5.20;3.10;;;;;;;;;;5019052;28;20564;-68
2022/01/28 01:39:07;;;;;;;5.00;2.88;;;;;;;;;;4993201;28;20099;-68
2022/01/28 01:41:42;;;;;;;5.65;3.25;;;;;;;;;;5011986;28;20084;-71
2022/01/28 01:44:31;;;;;;;5.82;2.95;;;;;;;;;;5019526;28;20049;-66
2022/01/28 01:52:43;;;;;;;4.72;2.90;;;;;;;;;;5023820;28;20053;-65
2022/01/28 01:55:09;;;;;;;6.35;2.90;;;;;;;;;;5022799;28;20054;-67
2022/01/28 01:57:36;;;;;;;4.43;3.08;;;;;;;;;;4987882;28;20372;-66
2022/01/28 02:00:05;;;;;;;3.95;2.80;;;;;;;;;;5015510;28;20045;-73
2022/01/28 02:02:31;;;;;;;5.20;3.10;;;;;;;;;;5021885;28;20081;-68
2022/01/28 02:04:58;;;;;;;4.28;2.63;;;;;;;;;;5005219;28;20092;-69
2022/01/28 02:07:25;;;;;;;6.18;3.10;;;;;;;;;;5020832;28;20065;-71
2022/01/28 02:09:51;;;;;;;9.75;2.90;;;;;;;;;;4996747;28;20073;-71
2022/01/28 02:12:17;;;;;;;6.13;2.83;;;;;;;;;;5004126;28;20053;-69
2022/01/28 02:14:43;;;;;;;6.70;2.92;;;;;;;;;;5004380;28;20271;-70
2022/01/28 02:17:10;;;;;;;4.47;2.67;;;;;;;;;;5006278;28;20057;-71
2022/01/28 02:19:38;;;;;;;4.85;2.95;;;;;;;;;;5014118;28;20053;-65
2022/01/28 02:22:05;;;;;;;4.40;3.25;;;;;;;;;;5021318;28;20056;-67
2022/01/28 02:24:41;;;;;;;5.25;3.03;;;;;;;;;;5021201;28;20044;-68
2022/01/28 02:27:08;;;;;;;5.88;2.40;;;;;;;;;;5024217;28;20060;-70
2022/01/28 02:29:36;;;;;;;4.47;2.63;;;;;;;;;;5012112;28;20045;-66
2022/01/28 02:32:06;;;;;;;4.75;2.50;;;;;;;;;;5019700;28;20053;-70
2022/01/28 02:34:36;;;;;;;3.85;2.25;;;;;;;;;;5003716;28;20068;-73
2022/01/28 02:37:05;;;;;;;4.35;2.72;;;;;;;;;;5021510;28;20533;-66
2022/01/28 02:39:31;;;;;;;5.45;2.40;;;;;;;;;;5015951;28;20049;-72
2022/01/28 02:42:48;;;;;;;6.05;2.47;;;;;;;;;;5003127;28;20049;-69
2022/01/28 02:44:54;;;;;;;3.83;2.28;;;;;;;;;;5018058;28;20197;-64
2022/01/28 02:47:31;;;;;;;5.82;2.42;;;;;;;;;;5024026;28;20108;-71
2022/01/28 02:49:58;;;;;;;5.20;2.25;;;;;;;;;;5015549;28;20335;-73
2022/01/28 02:52:35;;;;;;;8.68;2.20;;;;;;;;;;4987898;28;20069;-70
2022/01/28 02:55:08;;;;;;;5.03;2.30;;;;;;;;;;5005304;28;20905;-68
2022/01/28 02:57:38;;;;;;;4.18;2.35;;;;;;;;;;5022771;28;20147;-67
2022/01/28 03:00:05;;;;;;;7.20;2.58;;;;;;;;;;4996294;28;20045;-67
2022/01/28 03:02:32;;;;;;;3.78;1.92;;;;;;;;;;5018754;28;20530;-65
2022/01/28 03:07:30;;;;;;;5.28;1.90;;;;;;;;;;5009872;28;20434;-69
2022/01/28 03:12:48;;;;;;;4.18;2.08;;;;;;;;;;5011090;28;20060;-69
2022/01/28 03:15:19;;;;;;;3.50;2.00;;;;;;;;;;4987622;28;20068;-66
2022/01/28 03:22:44;;;;;;;3.17;2.20;;;;;;;;;;5003167;28;20350;-66
2022/01/28 03:25:11;;;;;;;5.70;2.20;;;;;;;;;;5024701;28;20164;-69
2022/01/28 03:30:07;;;;;;;5.30;2.17;;;;;;;;;;5015536;28;20041;-69
2022/01/28 03:32:33;;;;;;;7.82;2.20;;;;;;;;;;5042775;28;20263;-73
2022/01/28 03:34:59;;;;;;;3.97;2.22;;;;;;;;;;5021388;28;20080;-70
2022/01/28 03:37:26;;;;;;;7.20;2.80;;;;;;;;;;4987290;28;20351;-68
2022/01/28 03:39:52;;;;;;;5.97;2.90;;;;;;;;;;4996453;28;20067;-72
2022/01/28 03:42:18;;;;;;;3.85;2.45;;;;;;;;;;5003118;28;20381;-69
2022/01/28 03:44:44;;;;;;;5.88;2.50;;;;;;;;;;5007067;28;20347;-66
2022/01/28 03:47:10;;;;;;;5.28;2.55;;;;;;;;;;5021929;28;20534;-66
2022/01/28 03:49:38;;;;;;;8.15;2.80;;;;;;;;;;5008356;28;20054;-72
2022/01/28 03:52:04;;;;;;;4.32;2.60;;;;;;;;;;5006174;28;20052;-68
2022/01/28 03:54:31;;;;;;;7.78;2.85;;;;;;;;;;5023141;28;20525;-68
2022/01/28 03:56:57;;;;;;;5.97;2.85;;;;;;;;;;5018304;28;20111;-68
2022/01/28 03:59:23;;;;;;;4.97;3.10;;;;;;;;;;5007108;28;20067;-64
2022/01/28 04:01:51;;;;;;;6.68;3.22;;;;;;;;;;5018063;28;20103;-66
2022/01/28 04:12:20;;;;;;;5.15;2.78;;;;;;;;;;5003209;28;20049;-63
2022/01/28 04:15:21;;;;;;;5.80;2.30;;;;;;;;;;5040657;28;20591;-65
2022/01/28 04:17:35;;;;;;;6.10;2.50;;;;;;;;;;5020479;28;20045;-69
2022/01/28 04:20:01;;;;;;;4.00;2.20;;;;;;;;;;5013684;28;20064;-70
2022/01/28 04:22:27;;;;;;;3.58;2.10;;;;;;;;;;5001089;28;20473;-69
2022/01/28 04:24:54;;;;;;;5.50;2.10;;;;;;;;;;5018300;28;20394;-72
2022/01/28 04:27:20;;;;;;;2.90;2.00;;;;;;;;;;4999965;28;20061;-71
2022/01/28 04:29:46;;;;;;;5.57;2.00;;;;;;;;;;5010903;28;20055;-68
2022/01/28 04:32:12;;;;;;;3.05;1.80;;;;;;;;;;5017850;28;20518;-73
2022/01/28 04:34:39;;;;;;;7.50;2.55;;;;;;;;;;5018479;28;20061;-64
2022/01/28 04:37:31;;;;;;;4.80;1.60;;;;;;;;;;5016848;28;20055;-64
2022/01/28 04:45:57;;;;;;;3.13;2.10;;;;;;;;;;4984373;28;20691;-65
2022/01/28 04:48:34;;;;;;;4.55;1.45;;;;;;;;;;4981626;28;20185;-71
2022/01/28 04:51:17;;;;;;;5.32;2.50;;;;;;;;;;5001336;28;20045;-68
2022/01/28 05:04:52;;;;;;;6.57;2.08;;;;;;;;;;4999415;28;20097;-73
2022/01/28 05:28:42;;;;;;;3.10;2.00;;;;;;;;;;4995413;28;20406;-71
2022/01/28 05:31:08;;;;;;;7.93;2.63;;;;;;;;;;5017334;28;20041;-71
2022/01/28 05:33:35;;;;;;;5.63;3.33;;;;;;;;;;5019474;28;20053;-67
2022/01/28 05:36:01;;;;;;;8.85;3.88;;;;;;;;;;5021043;28;20111;-73
2022/01/28 05:38:27;;;;;;;9.35;3.80;;;;;;;;;;4997127;28;20108;-67
2022/01/28 05:40:53;;;;;;;11.90;4.50;;;;;;;;;;4996038;28;20672;-71
2022/01/28 05:43:20;;;;;;;7.03;4.15;;;;;;;;;;5000469;28;20079;-72
2022/01/28 05:45:46;;;;;;;6.80;3.85;;;;;;;;;;4989285;28;20441;-69
2022/01/28 05:48:12;;;;;;;11.32;4.07;;;;;;;;;;5010717;28;20092;-74
2022/01/28 05:50:38;;;;;;;8.10;3.60;;;;;;;;;;5006632;28;20052;-69
2022/01/28 05:53:04;;;;;;;5.63;3.28;;;;;;;;;;5013930;28;20048;-70
2022/01/28 05:55:31;;;;;;;8.48;3.10;;;;;;;;;;4991684;28;20087;-70
2022/01/28 05:57:57;;;;;;;6.47;3.13;;;;;;;;;;5012069;28;20092;-73
2022/01/28 06:00:23;;;;;;;9.25;2.92;;;;;;;;;;5004694;28;20049;-68
2022/01/28 06:02:49;;;;;;;7.13;3.08;;;;;;;;;;5010940;28;20689;-67
2022/01/28 06:05:17;;;;;;;10.15;3.03;;;;;;;;;;5004653;28;20056;-71
2022/01/28 06:07:44;;;;;;;9.85;2.88;;;;;;;;;;5012283;28;20481;-69
2022/01/28 06:10:12;;;;;;;7.00;3.05;;;;;;;;;;4987024;28;20052;-69
2022/01/28 06:12:43;;;;;;;5.50;2.60;;;;;;;;;;4994167;28;20053;-71
2022/01/28 06:15:10;;;;;;;6.35;2.38;;;;;;;;;;5012792;28;20057;-70
2022/01/28 06:17:37;;;;;;;6.25;2.65;;;;;;;;;;4994389;28;20167;-65
2022/01/28 06:20:06;;;;;;;5.30;2.75;;;;;;;;;;4970770;28;20045;-72
2022/01/28 06:22:38;;;;;;;7.00;2.70;;;;;;;;;;5010807;28;20049;-71
2022/01/28 06:25:05;;;;;;;7.28;3.00;;;;;;;;;;5013069;28;20055;-70
2022/01/28 06:27:32;;;;;;;10.82;3.00;;;;;;;;;;5012274;28;20057;-71
2022/01/28 06:29:58;;;;;;;8.95;3.35;;;;;;;;;;4986139;28;20050;-70
2022/01/28 06:32:25;;;;;;;7.25;2.92;;;;;;;;;;5014918;28;20072;-70
2022/01/28 06:34:51;;;;;;;12.00;2.95;;;;;;;;;;5016779;28;20053;-71
2022/01/28 06:37:18;;;;;;;6.22;2.72;;;;;;;;;;4997111;28;20691;-70
2022/01/28 06:39:44;;;;;;;4.57;2.63;;;;;;;;;;5007387;28;20053;-68
2022/01/28 06:42:11;;;;;;;7.93;2.88;;;;;;;;;;5016239;28;20061;-74
2022/01/28 06:44:37;;;;;;;5.50;2.63;;;;;;;;;;5017011;28;20644;-71
2022/01/28 06:47:04;;;;;;;5.63;2.65;;;;;;;;;;4998661;28;20095;-71
2022/01/28 06:49:31;;;;;;;6.05;2.78;;;;;;;;;;5009776;28;20143;-67
2022/01/28 06:51:57;;;;;;;6.07;2.85;;;;;;;;;;4995826;28;20144;-72
2022/01/28 06:54:24;;;;;;;7.75;3.25;;;;;;;;;;4996020;28;20083;-71
2022/01/28 06:56:50;;;;;;;4.97;2.60;;;;;;;;;;4999985;28;20378;-66
2022/01/28 06:59:17;;;;;;;9.07;2.92;;;;;;;;;;5006904;28;20064;-72
2022/01/28 07:01:43;;;;;;;5.50;2.60;;;;;;;;;;5016627;28;20053;-73
2022/01/28 07:04:10;;;;;;;6.93;2.67;;;;;;;;;;4998440;28;20056;-65
2022/01/28 07:06:36;;;;;;;7.60;2.40;;;;;;;;;;5016088;28;20498;-69
2022/01/28 07:09:02;;;;;;;8.32;2.30;;;;;;;;;;4992092;28;20107;-68
2022/01/28 07:11:28;;;;;;;4.70;2.40;;;;;;;;;;5016309;28;20048;-69
2022/01/28 07:13:55;;;;;;;7.30;2.25;;;;;;;;;;5014204;28;20041;-75
2022/01/28 07:16:21;;;;;;;5.80;2.25;;;;;;;;;;5017462;28;20575;-75
2022/01/28 07:18:47;;;;;;;11.05;2.60;;;;;;;;;;5012536;28;20085;-75
2022/01/28 07:21:14;;;;;;;6.40;1.95;;;;;;;;;;5017399;28;20565;-71
2022/01/28 07:23:40;;;;;;;7.43;3.60;;;;;;;;;;4998584;28;20064;-73
2022/01/28 07:26:06;;;;;;;8.85;2.40;;;;;;;;;;4984675;28;20056;-71
2022/01/28 07:28:35;;;;;;;18.05;3.22;;;;;;;;;;5007103;28;20053;-73
2022/01/28 07:31:01;;;;;;;9.77;3.00;;;;;;;;;;4994670;28;20106;-71
2022/01/28 07:33:28;;;;;;;18.95;3.80;;;;;;;;;;5014388;28;20061;-74
2022/01/28 07:35:54;;;;;;;18.88;3.65;;;;;;;;;;4997605;28;20054;-72
2022/01/28 07:38:20;;;;;;;17.23;3.70;;;;;;;;;;4976052;28;20610;-72
2022/01/28 07:40:46;;;;;;;10.52;4.07;;;;;;;;;;5009746;28;20318;-73
2022/01/28 07:43:13;;;;;;;17.30;4.72;;;;;;;;;;4999983;28;20126;-74
2022/01/28 07:45:39;;;;;;;13.45;5.10;;;;;;;;;;5024075;28;20148;-73
2022/01/28 07:48:05;;;;;;;16.30;5.60;;;;;;;;;;5005933;28;20127;-78
2022/01/28 07:50:33;;;;;;;16.73;5.68;;;;;;;;;;5019323;28;20033;-76
2022/01/28 07:52:59;;;;;;;20.52;6.55;;;;;;;;;;5005253;28;20041;-75
2022/01/28 07:55:26;;;;;;;19.98;6.35;;;;;;;;;;5004708;28;20149;-78
2022/01/28 07:57:52;;;;;;;26.42;6.65;;;;;;;;;;5025685;28;20142;-78
2022/01/28 08:00:18;;;;;;;32.58;6.57;;;;;;;;;;4995933;28;20057;-69
2022/01/28 08:02:45;;;;;;;15.88;5.90;;;;;;;;;;5007329;28;20149;-74
2022/01/28 08:05:11;;;;;;;26.15;6.75;;;;;;;;;;5022677;28;20052;-78
2022/01/28 08:07:38;;;;;;;50.80;8.38;;;;;;;;;;5020592;28;20095;-81
2022/01/28 08:10:05;;;;;;;18.58;5.80;;;;;;;;;;5013238;28;20778;-73
2022/01/28 08:12:31;;;;;;;18.65;5.50;;;;;;;;;;5000895;28;20045;-76
2022/01/28 08:14:58;;;;;;;12.55;5.00;;;;;;;;;;5004636;28;20044;-74
2022/01/28 08:17:24;;;;;;;15.00;5.10;;;;;;;;;;5024254;28;20049;-75
2022/01/28 08:19:50;;;;;;;18.50;4.30;;;;;;;;;;5014668;28;20494;-67
2022/01/28 08:22:17;;;;;;;10.50;3.50;;;;;;;;;;5044659;28;20525;-68
2022/01/28 08:24:43;;;;;;;24.98;5.50;;;;;;;;;;5021125;28;20064;-69
2022/01/28 08:27:09;;;;;;;16.95;4.35;;;;;;;;;;5004136;28;20485;-71
2022/01/28 08:29:36;;;;;;;17.73;3.63;;;;;;;;;;4995020;28;20072;-69
2022/01/28 08:32:03;;;;;;;14.85;4.53;;;;;;;;;;5004351;28;20544;-73
2022/01/28 08:34:31;;;;;;;11.10;4.25;;;;;;;;;;5023141;28;20060;-78
2022/01/28 08:36:59;;;;;;;18.08;4.82;;;;;;;;;;5024208;28;20037;-80
2022/01/28 08:39:25;;;;;;;24.75;5.65;;;;;;;;;;5013082;28;20441;-79
2022/01/28 08:41:51;;;;;;;14.00;5.75;;;;;;;;;;5022064;28;20233;-75
2022/01/28 08:44:18;;;;;;;20.48;6.95;;;;;;;;;;5021351;28;20178;-80
2022/01/28 08:46:44;;;;;;;22.35;6.97;;;;;;;;;;5001828;28;20045;-77
2022/01/28 08:49:10;;;;;;;23.50;7.47;;;;;;;;;;5013744;28;20071;-70
2022/01/28 08:51:37;;;;;;;17.08;6.60;;;;;;;;;;5020658;28;20053;-69
2022/01/28 08:54:03;;;;;;;20.65;6.60;;;;;;;;;;5022936;28;20348;-74
2022/01/28 08:56:29;;;;;;;12.88;6.32;;;;;;;;;;5022935;28;20068;-78
2022/01/28 08:58:56;;;;;;;23.48;6.65;;;;;;;;;;4994553;28;20061;-71
2022/01/28 09:01:22;;;;;;;17.52;5.20;;;;;;;;;;5024330;28;20046;-79
2022/01/28 09:03:49;;;;;;;20.58;5.95;;;;;;;;;;5002616;28;20057;-70
2022/01/28 09:06:16;;;;;;;33.75;6.85;;;;;;;;;;5020366;28;20076;-69
2022/01/28 09:08:44;;;;;;;24.70;6.68;;;;;;;;;;4994628;28;20545;-79
2022/01/28 09:13:50;;;;;;;19.67;6.22;;;;;;;;;;5019827;28;20153;-69
2022/01/28 09:16:17;;;;;;;18.50;7.38;;;;;;;;;;5023698;28;20115;-69
2022/01/28 09:18:44;;;;;;;21.10;7.70;;;;;;;;;;5012522;28;20049;-80
2022/01/28 09:21:10;;;;;;;42.88;11.63;;;;;;;;;;5019376;28;20497;-79
2022/01/28 09:23:37;;;;;;;30.85;13.23;;;;;;;;;;5003347;28;20140;-75
2022/01/28 09:26:03;;;;;;;34.50;14.85;;;;;;;;;;5018196;28;20370;-78
2022/01/28 09:28:29;;;;;;;42.88;16.80;;;;;;;;;;5015186;28;20072;-79
2022/01/28 09:30:57;;;;;;;39.63;17.05;;;;;;;;;;5015096;28;20068;-76
2022/01/28 09:33:24;;;;;;;37.67;16.80;;;;;;;;;;5002511;28;20722;-75
2022/01/28 09:35:50;;;;;;;37.67;15.57;;;;;;;;;;5015322;28;20052;-76
2022/01/28 09:38:16;;;;;;;29.20;14.45;;;;;;;;;;4999368;28;20077;-81
2022/01/28 09:40:43;;;;;;;38.85;12.57;;;;;;;;;;5013468;28;20190;-79
2022/01/28 09:43:09;;;;;;;26.15;12.45;;;;;;;;;;5018451;28;20072;-70
2022/01/28 09:45:36;;;;;;;25.55;12.13;;;;;;;;;;5018376;28;20052;-78
2022/01/28 09:48:03;;;;;;;30.48;12.38;;;;;;;;;;5001060;28;21294;-81
2022/01/28 09:50:31;;;;;;;25.27;9.75;;;;;;;;;;4993811;28;20442;-75
2022/01/28 09:52:58;;;;;;;27.52;10.07;;;;;;;;;;5019963;28;20496;-72
2022/01/28 09:55:26;;;;;;;17.73;7.97;;;;;;;;;;5019272;28;20053;-76
2022/01/28 09:57:55;;;;;;;21.30;8.48;;;;;;;;;;4987518;28;20052;-80
2022/01/28 10:00:25;;;;;;;20.52;9.48;;;;;;;;;;5010822;28;20147;-74
2022/01/28 10:03:02;;;;;;;27.63;12.23;;;;;;;;;;4998376;28;20118;-70
2022/01/28 10:05:35;;;;;;;27.23;13.48;;;;;;;;;;5016917;28;20037;-79
2022/01/28 10:08:14;;;;;;;25.17;13.60;;;;;;;;;;5022359;28;20045;-80
2022/01/28 10:10:47;;;;;;;26.52;13.38;;;;;;;;;;5017109;28;20391;-75
2022/01/28 10:13:29;;;;;;;26.40;12.15;;;;;;;;;;5007737;28;20120;-78
2022/01/28 10:16:07;;;;;;;19.60;8.20;;;;;;;;;;5023665;28;20065;-81
2022/01/28 10:18:51;;;;;;;16.83;6.88;;;;;;;;;;4984715;28;20049;-79
2022/01/28 10:21:17;;;;;;;20.15;6.97;;;;;;;;;;5006670;28;20073;-69
2022/01/28 10:24:09;;;;;;;14.15;6.47;;;;;;;;;;5024816;28;20242;-79
2022/01/28 10:26:46;;;;;;;20.75;7.65;;;;;;;;;;5023281;28;20503;-74
2022/01/28 10:29:14;;;;;;;18.20;6.97;;;;;;;;;;5015699;28;20049;-71
2022/01/28 10:32:02;;;;;;;22.50;7.05;;;;;;;;;;5003347;28;20150;-69
2022/01/28 10:34:29;;;;;;;14.65;6.63;;;;;;;;;;5021069;28;20076;-76
2022/01/28 10:37:22;;;;;;;18.05;7.03;;;;;;;;;;5026729;28;20083;-77
2022/01/28 10:39:48;;;;;;;15.40;6.70;;;;;;;;;;4981421;28;20064;-71
2022/01/28 10:42:33;;;;;;;14.02;6.50;;;;;;;;;;5020617;28;20092;-74
2022/01/28 10:45:04;;;;;;;18.08;6.30;;;;;;;;;;5022750;28;20053;-77
2022/01/28 10:47:36;;;;;;;16.50;6.07;;;;;;;;;;5024728;28;20486;-78
2022/01/28 10:50:38;;;;;;;11.65;5.85;;;;;;;;;;5014675;28;20044;-76
2022/01/28 10:53:13;;;;;;;15.05;5.97;;;;;;;;;;5004477;28;20072;-81
2022/01/28 10:55:43;;;;;;;11.55;5.88;;;;;;;;;;5022567;28;20049;-75
2022/01/28 10:58:15;;;;;;;15.75;5.60;;;;;;;;;;5018264;28;20076;-80
2022/01/28 11:00:44;;;;;;;12.73;5.47;;;;;;;;;;4999339;28;20723;-70
2022/01/28 11:03:13;;;;;;;10.43;5.43;;;;;;;;;;5019306;28;20471;-72
2022/01/28 11:05:41;;;;;;;13.77;6.10;;;;;;;;;;5022607;28;20240;-69
2022/01/28 11:08:11;;;;;;;11.93;5.28;;;;;;;;;;5003349;28;20049;-78
2022/01/28 11:10:39;;;;;;;14.77;6.40;;;;;;;;;;5017409;28;20056;-71
2022/01/28 11:13:05;;;;;;;11.68;4.97;;;;;;;;;;5006126;28;20049;-73
2022/01/28 11:15:33;;;;;;;13.23;4.82;;;;;;;;;;5023397;28;20060;-79
2022/01/28 11:18:01;;;;;;;15.82;5.25;;;;;;;;;;5003452;28;20594;-79
2022/01/28 11:20:49;;;;;;;9.70;4.78;;;;;;;;;;4998306;28;20086;-75
2022/01/28 11:23:51;;;;;;;10.73;4.55;;;;;;;;;;5025002;28;20430;-73
2022/01/28 11:26:23;;;;;;;11.93;4.75;;;;;;;;;;5005249;28;20619;-72
2022/01/28 11:28:54;;;;;;;8.23;3.67;;;;;;;;;;4996932;28;20384;-75
2022/01/28 11:31:42;;;;;;;11.30;3.88;;;;;;;;;;5002537;28;20076;-80
2022/01/28 11:34:17;;;;;;;17.10;3.60;;;;;;;;;;5018000;28;20050;-78
2022/01/28 11:36:45;;;;;;;8.30;2.67;;;;;;;;;;5021350;28;20057;-68
2022/01/28 11:39:28;;;;;;;8.23;3.20;;;;;;;;;;5003823;28;20052;-73
2022/01/28 11:42:01;;;;;;;8.52;3.53;;;;;;;;;;4989023;28;20168;-78
2022/01/28 11:44:51;;;;;;;7.05;3.00;;;;;;;;;;5004183;28;20094;-77
2022/01/28 11:47:30;;;;;;;12.45;4.03;;;;;;;;;;5010260;28;20176;-72
2022/01/28 11:50:17;;;;;;;7.22;3.05;;;;;;;;;;4993381;28;20126;-75
2022/01/28 11:52:47;;;;;;;7.60;3.10;;;;;;;;;;5006241;28;20418;-71
2022/01/28 11:55:26;;;;;;;8.65;3.00;;;;;;;;;;5023388;28;20065;-75
2022/01/28 11:58:04;;;;;;;13.25;3.80;;;;;;;;;;5005123;28;21257;-81
2022/01/28 12:00:41;;;;;;;4.18;2.17;;;;;;;;;;5017060;28;20078;-81
2022/01/28 12:03:21;;;;;;;4.93;2.13;;;;;;;;;;5000664;28;20467;-76
2022/01/28 12:05:47;;;;;;;8.52;2.40;;;;;;;;;;5003742;28;20067;-71
2022/01/28 12:08:32;;;;;;;5.03;1.95;;;;;;;;;;5003505;28;20053;-72
2022/01/28 12:11:02;;;;;;;5.25;2.35;;;;;;;;;;5016555;28;20044;-76
2022/01/28 12:14:05;;;;;;;5.68;2.00;;;;;;;;;;4987174;28;20772;-73
2022/01/28 12:16:40;;;;;;;7.88;2.70;;;;;;;;;;5021158;28;20049;-76
2022/01/28 12:19:16;;;;;;;;;;;;;;;;;;4996379;28;20482;-69
2022/01/28 12:22:03;;;;;;;6.65;2.50;;;;;;;;;;5020593;28;20060;-70
2022/01/28 12:24:32;;;;;;;11.45;3.45;;;;;;;;;;5003679;28;20061;-75
2022/01/28 12:27:10;;;;;;;5.80;2.30;;;;;;;;;;5019139;28;20107;-74
2022/01/28 12:29:43;;;;;;;4.93;2.20;;;;;;;;;;5012649;28;20044;-79
2022/01/28 12:32:11;;;;;;;5.78;2.10;;;;;;;;;;5023753;28;20084;-68
2022/01/28 12:34:46;;;;;;;8.40;3.17;;;;;;;;;;5022172;28;20856;-75
2022/01/28 12:37:20;;;;;;;6.70;2.80;;;;;;;;;;5022623;28;20072;-67
2022/01/28 12:39:55;;;;;;;7.03;2.88;;;;;;;;;;4995434;28;20990;-72
2022/01/28 12:42:23;;;;;;;13.07;3.67;;;;;;;;;;5022534;28;20263;-74
2022/01/28 12:44:54;;;;;;;18.13;4.60;;;;;;;;;;5015453;28;20065;-71
2022/01/28 12:47:22;;;;;;;12.60;5.85;;;;;;;;;;5023129;28;20053;-73
2022/01/28 12:50:02;;;;;;;12.85;5.40;;;;;;;;;;5015936;28;20132;-70
2022/01/28 12:52:34;;;;;;;14.23;6.40;;;;;;;;;;5020335;28;20052;-78
2022/01/28 12:55:02;;;;;;;19.58;7.07;;;;;;;;;;5025068;28;20057;-76
2022/01/28 12:57:29;;;;;;;16.23;6.65;;;;;;;;;;5022129;28;20145;-77
2022/01/28 12:59:56;;;;;;;17.30;7.15;;;;;;;;;;5013103;28;20758;-77
2022/01/28 13:02:23;;;;;;;18.70;7.70;;;;;;;;;;5021176;28;20083;-79
2022/01/28 13:10:20;;;;;;;16.73;8.05;;;;;;;;;;4993650;28;20053;-70
2022/01/28 13:12:47;;;;;;;23.35;7.72;;;;;;;;;;5020519;28;20150;-73
2022/01/28 13:15:15;;;;;;;29.58;7.35;;;;;;;;;;5018886;28;20563;-68
2022/01/28 13:17:55;;;;;;;23.88;8.55;;;;;;;;;;5020899;28;20766;-73
2022/01/28 13:20:23;;;;;;;16.88;7.50;;;;;;;;;;4997604;28;20053;-79
2022/01/28 13:22:52;;;;;;;15.23;7.05;;;;;;;;;;5001685;28;21142;-74
2022/01/28 13:25:24;;;;;;;17.05;6.53;;;;;;;;;;5021347;28;20060;-67
2022/01/28 13:27:57;;;;;;;12.40;6.90;;;;;;;;;;5002730;28;20103;-74
2022/01/28 13:30:24;;;;;;;16.73;7.28;;;;;;;;;;4993866;28;20111;-75
2022/01/28 13:32:52;;;;;;;14.45;6.90;;;;;;;;;;5019298;28;20057;-70
2022/01/28 13:35:24;;;;;;;12.48;6.10;;;;;;;;;;5020717;28;20110;-70
2022/01/28 13:38:01;;;;;;;12.10;6.55;;;;;;;;;;5003843;28;20049;-76
2022/01/28 13:40:29;;;;;;;12.20;5.82;;;;;;;;;;4994815;28;20142;-78
2022/01/28 13:43:19;;;;;;;18.58;7.00;;;;;;;;;;5021516;28;20049;-79
2022/01/28 13:45:58;;;;;;;18.80;6.57;;;;;;;;;;5023147;28;20057;-77
2022/01/28 13:48:34;;;;;;;16.55;6.47;;;;;;;;;;4984724;28;20065;-74
2022/01/28 13:51:27;;;;;;;17.45;6.30;;;;;;;;;;5021355;28;20338;-79
2022/01/28 13:56:45;;;;;;;14.45;8.20;;;;;;;;;;5004941;28;20061;-73
2022/01/28 13:59:17;;;;;;;14.55;6.63;;;;;;;;;;5012832;28;20120;-76
2022/01/28 14:01:45;;;;;;;21.35;7.68;;;;;;;;;;5023911;28;20048;-72
2022/01/28 14:04:23;;;;;;;11.07;6.32;;;;;;;;;;5019556;28;20110;-71
2022/01/28 14:06:49;;;;;;;22.30;10.35;;;;;;;;;;5003693;28;20061;-76
2022/01/28 14:09:23;;;;;;;17.67;5.90;;;;;;;;;;5014997;28;20053;-70
2022/01/28 14:11:58;;;;;;;15.10;6.60;;;;;;;;;;5025058;28;20049;-81
2022/01/28 14:14:33;;;;;;;17.70;7.78;;;;;;;;;;5025522;28;20681;-77
2022/01/28 14:17:05;;;;;;;7.90;4.60;;;;;;;;;;5004981;28;20057;-69
2022/01/28 14:19:37;;;;;;;11.38;4.97;;;;;;;;;;5012784;28;20050;-81
2022/01/28 14:22:06;;;;;;;12.20;4.10;;;;;;;;;;5022545;28;20076;-77
2022/01/28 14:24:35;;;;;;;9.57;4.50;;;;;;;;;;5024101;28;20103;-76
2022/01/28 14:29:49;;;;;;;8.18;4.15;;;;;;;;;;4997118;28;20254;-77
2022/01/28 14:32:19;;;;;;;9.43;4.30;;;;;;;;;;5021900;28;20065;-72
2022/01/28 14:34:47;;;;;;;6.18;3.55;;;;;;;;;;5022114;28;20053;-72
2022/01/28 14:37:14;;;;;;;12.98;5.35;;;;;;;;;;5019599;28;20049;-76
2022/01/28 14:39:41;;;;;;;9.77;4.28;;;;;;;;;;5014074;28;20095;-75
2022/01/28 14:42:09;;;;;;;12.55;3.70;;;;;;;;;;5000879;28;20140;-71
2022/01/28 14:44:37;;;;;;;6.18;2.55;;;;;;;;;;5021774;28;20071;-67
2022/01/28 14:47:05;;;;;;;9.57;4.40;;;;;;;;;;5003159;28;20053;-77
2022/01/28 14:49:32;;;;;;;10.20;3.25;;;;;;;;;;4998634;28;20546;-79
2022/01/28 14:52:02;;;;;;;6.72;2.92;;;;;;;;;;5006064;28;20049;-76
2022/01/28 14:54:29;;;;;;;7.10;2.80;;;;;;;;;;5002618;28;20106;-74
2022/01/28 14:56:59;;;;;;;6.00;2.80;;;;;;;;;;5003497;28;20063;-74
2022/01/28 14:59:26;;;;;;;7.50;3.30;;;;;;;;;;5016109;28;20501;-81
2022/01/28 15:01:54;;;;;;;8.98;4.57;;;;;;;;;;5003321;28;20344;-76
2022/01/28 15:04:21;;;;;;;6.75;2.80;;;;;;;;;;5020309;28;20484;-69
2022/01/28 15:06:48;;;;;;;6.50;2.85;;;;;;;;;;5020916;28;20517;-67
2022/01/28 15:09:17;;;;;;;5.60;3.70;;;;;;;;;;5011940;28;20058;-75
2022/01/28 15:11:47;;;;;;;7.63;3.10;;;;;;;;;;5003456;28;20057;-69
2022/01/28 15:14:22;;;;;;;6.00;3.03;;;;;;;;;;5019204;28;20623;-74
2022/01/28 15:16:49;;;;;;;12.60;3.05;;;;;;;;;;5023244;28;21293;-76
2022/01/28 15:19:18;;;;;;;8.05;3.00;;;;;;;;;;5012569;28;20049;-77
2022/01/28 15:21:50;;;;;;;7.63;2.58;;;;;;;;;;5005921;28;20566;-75
2022/01/28 15:24:20;;;;;;;8.13;2.60;;;;;;;;;;5004878;28;20054;-68
2022/01/28 15:26:47;;;;;;;7.20;3.00;;;;;;;;;;5022373;28;20428;-69
2022/01/28 15:37:36;;;;;;;6.35;2.53;;;;;;;;;;4967669;28;20333;-71
2022/01/28 15:40:02;;;;;;;5.63;2.78;;;;;;;;;;4942662;28;20050;-73
2022/01/28 15:42:29;;;;;;;7.82;2.83;;;;;;;;;;4968256;28;20055;-78
2022/01/28 15:44:56;;;;;;;7.90;3.20;;;;;;;;;;4951765;28;20963;-72
2022/01/28 15:47:22;;;;;;;5.63;2.60;;;;;;;;;;4952588;28;20058;-80
2022/01/28 15:49:48;;;;;;;11.88;4.07;;;;;;;;;;4943481;28;20077;-71
2022/01/28 15:52:15;;;;;;;6.90;2.80;;;;;;;;;;4950593;28;20765;-77
2022/01/28 15:54:42;;;;;;;9.32;3.53;;;;;;;;;;4967460;28;20058;-71
2022/01/28 15:57:08;;;;;;;4.75;2.22;;;;;;;;;;4950687;28;20646;-68
2022/01/28 15:59:35;;;;;;;4.75;2.35;;;;;;;;;;4958320;28;20597;-77
2022/01/28 16:02:02;;;;;;;5.25;2.13;;;;;;;;;;4965330;28;20339;-79
2022/01/28 16:04:30;;;;;;;12.10;2.58;;;;;;;;;;4967989;28;20074;-76
2022/01/28 16:06:58;;;;;;;4.25;2.10;;;;;;;;;;4967172;28;20481;-73
2022/01/28 16:09:25;;;;;;;5.25;2.10;;;;;;;;;;4985833;28;20156;-74
2022/01/28 16:11:54;;;;;;;6.18;2.00;;;;;;;;;;5019660;28;20068;-74
2022/01/28 16:14:28;;;;;;;6.75;1.70;;;;;;;;;;5005809;28;20527;-68
2022/01/28 16:17:24;;;;;;;4.68;1.70;;;;;;;;;;5005594;28;20060;-74
2022/01/28 16:19:51;;;;;;;7.57;2.45;;;;;;;;;;4995898;28;20083;-70
2022/01/28 16:22:17;;;;;;;3.63;1.77;;;;;;;;;;5005678;28;20841;-75
2022/01/28 16:24:44;;;;;;;4.50;1.85;;;;;;;;;;5019798;28;20167;-70
2022/01/28 16:27:10;;;;;;;3.88;1.55;;;;;;;;;;5019875;28;20124;-71
2022/01/28 16:29:41;;;;;;;7.50;1.58;;;;;;;;;;5016066;28;20053;-73
2022/01/28 16:32:08;;;;;;;6.57;2.60;;;;;;;;;;5002034;28;20395;-70
2022/01/28 16:34:34;;;;;;;4.30;1.88;;;;;;;;;;5004265;28;21236;-78
2022/01/28 16:37:00;;;;;;;6.30;1.63;;;;;;;;;;5017566;28;20049;-70
2022/01/28 16:39:26;;;;;;;5.65;2.03;;;;;;;;;;5014130;28;20874;-74
2022/01/28 16:41:58;;;;;;;5.40;1.85;;;;;;;;;;5019215;28;20129;-76